sensor_id;sensor_type;location;lat;lon;timestamp;P1;durP1;ratioP1;P2;durP2;ratioP2
21356;SDS011;10836;53.068;18.234;2022-11-11T00:02:55;13.57;;;5.80;;
21356;SDS011;10836;53.068;18.234;2022-11-11T00:05:42;14.50;;;5.77;;
21356;SDS011;10836;53.068;18.234;2022-11-11T00:08:27;15.23;;;6.07;;
21356;SDS011;10836;53.068;18.234;2022-11-11T00:11:14;22.47;;;7.73;;
21356;SDS011;10836;53.068;18.234;2022-11-11T00:14:00;19.83;;;7.57;;
21356;SDS011;10836;53.068;18.234;2022-11-11T00:16:45;27.47;;;6.70;;
21356;SDS011;10836;53.068;18.234;2022-11-11T00:19:49;19.17;;;6.83;;
21356;SDS011;10836;53.068;18.234;2022-11-11T00:22:54;16.13;;;5.53;;
21356;SDS011;10836;53.068;18.234;2022-11-11T00:25:58;18.17;;;6.53;;
21356;SDS011;10836;53.068;18.234;2022-11-11T00:29:05;19.93;;;6.30;;
21356;SDS011;10836;53.068;18.234;2022-11-11T00:31:50;20.00;;;6.13;;
21356;SDS011;10836;53.068;18.234;2022-11-11T00:34:56;17.47;;;6.87;;
21356;SDS011;10836;53.068;18.234;2022-11-11T00:38:10;11.43;;;5.30;;
21356;SDS011;10836;53.068;18.234;2022-11-11T00:41:21;20.03;;;7.07;;
21356;SDS011;10836;53.068;18.234;2022-11-11T00:44:08;18.17;;;5.93;;
21356;SDS011;10836;53.068;18.234;2022-11-11T00:46:55;20.60;;;6.27;;
21356;SDS011;10836;53.068;18.234;2022-11-11T00:49:59;20.80;;;6.03;;
21356;SDS011;10836;53.068;18.234;2022-11-11T00:53:07;19.20;;;6.47;;
21356;SDS011;10836;53.068;18.234;2022-11-11T00:55:56;20.87;;;5.40;;
21356;SDS011;10836;53.068;18.234;2022-11-11T00:58:43;18.00;;;6.00;;
21356;SDS011;10836;53.068;18.234;2022-11-11T01:01:28;19.77;;;5.63;;
21356;SDS011;10836;53.068;18.234;2022-11-11T01:04:15;19.93;;;7.13;;
21356;SDS011;10836;53.068;18.234;2022-11-11T01:07:00;19.10;;;6.47;;
21356;SDS011;10836;53.068;18.234;2022-11-11T01:09:46;23.03;;;6.97;;
21356;SDS011;10836;53.068;18.234;2022-11-11T01:12:32;14.77;;;5.63;;
21356;SDS011;10836;53.068;18.234;2022-11-11T01:15:17;14.87;;;5.87;;
21356;SDS011;10836;53.068;18.234;2022-11-11T01:18:03;21.57;;;6.07;;
21356;SDS011;10836;53.068;18.234;2022-11-11T01:20:59;22.83;;;6.37;;
21356;SDS011;10836;53.068;18.234;2022-11-11T01:23:51;17.80;;;5.33;;
21356;SDS011;10836;53.068;18.234;2022-11-11T01:26:38;12.97;;;5.80;;
21356;SDS011;10836;53.068;18.234;2022-11-11T01:29:23;18.20;;;5.73;;
21356;SDS011;10836;53.068;18.234;2022-11-11T01:32:09;20.00;;;6.20;;
21356;SDS011;10836;53.068;18.234;2022-11-11T01:34:54;15.83;;;5.43;;
21356;SDS011;10836;53.068;18.234;2022-11-11T01:37:41;16.17;;;5.80;;
21356;SDS011;10836;53.068;18.234;2022-11-11T01:40:26;16.63;;;5.47;;
21356;SDS011;10836;53.068;18.234;2022-11-11T01:43:19;11.90;;;4.97;;
21356;SDS011;10836;53.068;18.234;2022-11-11T01:46:08;14.43;;;5.13;;
21356;SDS011;10836;53.068;18.234;2022-11-11T01:49:33;18.77;;;5.77;;
21356;SDS011;10836;53.068;18.234;2022-11-11T01:52:34;15.60;;;5.80;;
21356;SDS011;10836;53.068;18.234;2022-11-11T01:55:23;14.10;;;5.30;;
21356;SDS011;10836;53.068;18.234;2022-11-11T01:58:10;17.97;;;5.87;;
21356;SDS011;10836;53.068;18.234;2022-11-11T02:00:59;23.63;;;5.60;;
21356;SDS011;10836;53.068;18.234;2022-11-11T02:03:45;15.00;;;6.00;;
21356;SDS011;10836;53.068;18.234;2022-11-11T02:06:54;17.60;;;5.50;;
21356;SDS011;10836;53.068;18.234;2022-11-11T02:09:44;17.80;;;6.07;;
21356;SDS011;10836;53.068;18.234;2022-11-11T02:12:32;16.57;;;5.17;;
21356;SDS011;10836;53.068;18.234;2022-11-11T02:15:37;20.33;;;7.33;;
21356;SDS011;10836;53.068;18.234;2022-11-11T02:18:23;17.43;;;5.47;;
21356;SDS011;10836;53.068;18.234;2022-11-11T02:21:11;20.80;;;5.70;;
21356;SDS011;10836;53.068;18.234;2022-11-11T02:24:03;17.77;;;5.90;;
21356;SDS011;10836;53.068;18.234;2022-11-11T02:26:54;19.53;;;5.43;;
21356;SDS011;10836;53.068;18.234;2022-11-11T02:29:44;18.40;;;5.30;;
21356;SDS011;10836;53.068;18.234;2022-11-11T02:32:32;21.57;;;6.97;;
21356;SDS011;10836;53.068;18.234;2022-11-11T02:35:18;16.40;;;5.90;;
21356;SDS011;10836;53.068;18.234;2022-11-11T02:38:06;17.17;;;5.97;;
21356;SDS011;10836;53.068;18.234;2022-11-11T02:40:56;17.90;;;6.37;;
21356;SDS011;10836;53.068;18.234;2022-11-11T02:44:00;18.97;;;5.67;;
21356;SDS011;10836;53.068;18.234;2022-11-11T02:46:46;15.20;;;5.50;;
21356;SDS011;10836;53.068;18.234;2022-11-11T02:49:32;15.23;;;5.53;;
21356;SDS011;10836;53.068;18.234;2022-11-11T02:52:18;24.33;;;6.23;;
21356;SDS011;10836;53.068;18.234;2022-11-11T02:55:04;21.10;;;6.27;;
21356;SDS011;10836;53.068;18.234;2022-11-11T02:57:50;16.33;;;5.80;;
21356;SDS011;10836;53.068;18.234;2022-11-11T03:00:36;14.37;;;5.10;;
21356;SDS011;10836;53.068;18.234;2022-11-11T03:03:22;14.30;;;5.23;;
21356;SDS011;10836;53.068;18.234;2022-11-11T03:06:08;13.23;;;5.40;;
21356;SDS011;10836;53.068;18.234;2022-11-11T03:08:54;23.00;;;6.50;;
21356;SDS011;10836;53.068;18.234;2022-11-11T03:11:39;16.67;;;6.50;;
21356;SDS011;10836;53.068;18.234;2022-11-11T03:14:25;17.20;;;5.93;;
21356;SDS011;10836;53.068;18.234;2022-11-11T03:17:11;14.27;;;5.63;;
21356;SDS011;10836;53.068;18.234;2022-11-11T03:20:16;20.60;;;5.87;;
21356;SDS011;10836;53.068;18.234;2022-11-11T03:23:22;16.10;;;5.10;;
21356;SDS011;10836;53.068;18.234;2022-11-11T03:26:08;21.93;;;5.23;;
21356;SDS011;10836;53.068;18.234;2022-11-11T03:28:54;19.80;;;5.80;;
21356;SDS011;10836;53.068;18.234;2022-11-11T03:31:40;19.77;;;5.87;;
21356;SDS011;10836;53.068;18.234;2022-11-11T03:34:25;13.83;;;5.90;;
21356;SDS011;10836;53.068;18.234;2022-11-11T03:37:12;15.53;;;5.70;;
21356;SDS011;10836;53.068;18.234;2022-11-11T03:40:16;13.10;;;5.27;;
21356;SDS011;10836;53.068;18.234;2022-11-11T03:43:01;18.67;;;5.03;;
21356;SDS011;10836;53.068;18.234;2022-11-11T03:45:50;16.07;;;4.80;;
21356;SDS011;10836;53.068;18.234;2022-11-11T03:48:37;16.80;;;5.07;;
21356;SDS011;10836;53.068;18.234;2022-11-11T03:51:22;19.57;;;5.03;;
21356;SDS011;10836;53.068;18.234;2022-11-11T03:54:08;15.67;;;5.87;;
21356;SDS011;10836;53.068;18.234;2022-11-11T03:56:54;15.37;;;5.00;;
21356;SDS011;10836;53.068;18.234;2022-11-11T04:00:03;17.90;;;5.03;;
21356;SDS011;10836;53.068;18.234;2022-11-11T04:03:01;17.90;;;5.20;;
21356;SDS011;10836;53.068;18.234;2022-11-11T04:06:13;17.83;;;5.17;;
21356;SDS011;10836;53.068;18.234;2022-11-11T04:09:18;13.57;;;5.00;;
21356;SDS011;10836;53.068;18.234;2022-11-11T04:12:22;22.30;;;5.63;;
21356;SDS011;10836;53.068;18.234;2022-11-11T04:15:09;20.13;;;6.03;;
21356;SDS011;10836;53.068;18.234;2022-11-11T04:18:13;15.70;;;5.43;;
21356;SDS011;10836;53.068;18.234;2022-11-11T04:20:59;13.93;;;4.57;;
21356;SDS011;10836;53.068;18.234;2022-11-11T04:24:03;16.57;;;4.90;;
21356;SDS011;10836;53.068;18.234;2022-11-11T04:27:11;15.07;;;4.70;;
21356;SDS011;10836;53.068;18.234;2022-11-11T04:29:58;20.53;;;5.03;;
21356;SDS011;10836;53.068;18.234;2022-11-11T04:32:44;16.30;;;4.77;;
21356;SDS011;10836;53.068;18.234;2022-11-11T04:35:31;17.60;;;5.37;;
21356;SDS011;10836;53.068;18.234;2022-11-11T04:38:17;14.17;;;4.67;;
21356;SDS011;10836;53.068;18.234;2022-11-11T04:41:21;20.40;;;6.03;;
21356;SDS011;10836;53.068;18.234;2022-11-11T04:44:07;20.00;;;5.63;;
21356;SDS011;10836;53.068;18.234;2022-11-11T04:47:11;16.80;;;4.83;;
21356;SDS011;10836;53.068;18.234;2022-11-11T04:49:57;15.80;;;5.03;;
21356;SDS011;10836;53.068;18.234;2022-11-11T04:52:50;15.47;;;4.77;;
21356;SDS011;10836;53.068;18.234;2022-11-11T04:55:36;16.53;;;4.67;;
21356;SDS011;10836;53.068;18.234;2022-11-11T04:58:41;16.40;;;5.40;;
21356;SDS011;10836;53.068;18.234;2022-11-11T05:01:26;13.50;;;5.73;;
21356;SDS011;10836;53.068;18.234;2022-11-11T05:04:30;18.40;;;4.80;;
21356;SDS011;10836;53.068;18.234;2022-11-11T05:07:15;12.53;;;4.37;;
21356;SDS011;10836;53.068;18.234;2022-11-11T05:10:20;19.13;;;5.53;;
21356;SDS011;10836;53.068;18.234;2022-11-11T05:13:05;12.23;;;4.30;;
21356;SDS011;10836;53.068;18.234;2022-11-11T05:16:13;19.27;;;4.57;;
21356;SDS011;10836;53.068;18.234;2022-11-11T05:19:22;13.30;;;4.30;;
21356;SDS011;10836;53.068;18.234;2022-11-11T05:25:20;12.90;;;4.43;;
21356;SDS011;10836;53.068;18.234;2022-11-11T05:28:14;16.67;;;5.40;;
21356;SDS011;10836;53.068;18.234;2022-11-11T05:31:00;13.87;;;4.90;;
21356;SDS011;10836;53.068;18.234;2022-11-11T05:33:46;12.10;;;5.00;;
21356;SDS011;10836;53.068;18.234;2022-11-11T05:36:31;19.43;;;6.23;;
21356;SDS011;10836;53.068;18.234;2022-11-11T05:39:18;16.50;;;4.97;;
21356;SDS011;10836;53.068;18.234;2022-11-11T05:42:03;19.00;;;4.80;;
21356;SDS011;10836;53.068;18.234;2022-11-11T05:44:49;14.83;;;4.63;;
21356;SDS011;10836;53.068;18.234;2022-11-11T05:47:35;14.47;;;5.37;;
21356;SDS011;10836;53.068;18.234;2022-11-11T05:50:21;14.87;;;5.00;;
21356;SDS011;10836;53.068;18.234;2022-11-11T05:53:07;14.83;;;4.73;;
21356;SDS011;10836;53.068;18.234;2022-11-11T05:55:52;14.33;;;5.40;;
21356;SDS011;10836;53.068;18.234;2022-11-11T05:58:38;19.03;;;6.00;;
21356;SDS011;10836;53.068;18.234;2022-11-11T06:01:24;21.60;;;5.77;;
21356;SDS011;10836;53.068;18.234;2022-11-11T06:04:09;19.43;;;5.37;;
21356;SDS011;10836;53.068;18.234;2022-11-11T06:07:02;18.47;;;4.63;;
21356;SDS011;10836;53.068;18.234;2022-11-11T06:09:48;17.23;;;5.60;;
21356;SDS011;10836;53.068;18.234;2022-11-11T06:12:34;17.23;;;5.33;;
21356;SDS011;10836;53.068;18.234;2022-11-11T06:15:46;23.47;;;6.57;;
21356;SDS011;10836;53.068;18.234;2022-11-11T06:18:31;19.07;;;5.57;;
21356;SDS011;10836;53.068;18.234;2022-11-11T06:21:17;15.63;;;5.10;;
21356;SDS011;10836;53.068;18.234;2022-11-11T06:24:03;17.57;;;6.07;;
21356;SDS011;10836;53.068;18.234;2022-11-11T06:26:49;19.03;;;6.13;;
21356;SDS011;10836;53.068;18.234;2022-11-11T06:29:34;13.73;;;5.40;;
21356;SDS011;10836;53.068;18.234;2022-11-11T06:32:20;20.63;;;6.17;;
21356;SDS011;10836;53.068;18.234;2022-11-11T06:35:06;19.27;;;5.73;;
21356;SDS011;10836;53.068;18.234;2022-11-11T06:37:51;16.20;;;5.47;;
21356;SDS011;10836;53.068;18.234;2022-11-11T06:40:37;20.57;;;6.17;;
21356;SDS011;10836;53.068;18.234;2022-11-11T06:43:23;19.30;;;5.80;;
21356;SDS011;10836;53.068;18.234;2022-11-11T06:46:15;15.10;;;5.50;;
21356;SDS011;10836;53.068;18.234;2022-11-11T06:49:04;20.57;;;6.17;;
21356;SDS011;10836;53.068;18.234;2022-11-11T06:51:50;21.23;;;5.47;;
21356;SDS011;10836;53.068;18.234;2022-11-11T06:54:35;19.97;;;6.27;;
21356;SDS011;10836;53.068;18.234;2022-11-11T06:57:22;23.03;;;5.60;;
21356;SDS011;10836;53.068;18.234;2022-11-11T07:00:07;14.97;;;5.10;;
21356;SDS011;10836;53.068;18.234;2022-11-11T07:02:54;13.10;;;5.03;;
21356;SDS011;10836;53.068;18.234;2022-11-11T07:05:42;17.27;;;5.50;;
21356;SDS011;10836;53.068;18.234;2022-11-11T07:08:28;17.60;;;5.77;;
21356;SDS011;10836;53.068;18.234;2022-11-11T07:11:14;17.80;;;7.77;;
21356;SDS011;10836;53.068;18.234;2022-11-11T07:14:03;17.13;;;7.60;;
21356;SDS011;10836;53.068;18.234;2022-11-11T07:16:49;17.30;;;6.00;;
21356;SDS011;10836;53.068;18.234;2022-11-11T07:19:34;14.73;;;5.27;;
21356;SDS011;10836;53.068;18.234;2022-11-11T07:22:20;12.10;;;4.97;;
21356;SDS011;10836;53.068;18.234;2022-11-11T07:25:05;17.97;;;5.43;;
21356;SDS011;10836;53.068;18.234;2022-11-11T07:27:51;14.30;;;4.60;;
21356;SDS011;10836;53.068;18.234;2022-11-11T07:30:43;17.63;;;4.53;;
21356;SDS011;10836;53.068;18.234;2022-11-11T07:33:29;15.03;;;4.63;;
21356;SDS011;10836;53.068;18.234;2022-11-11T07:36:14;15.77;;;5.37;;
21356;SDS011;10836;53.068;18.234;2022-11-11T07:39:00;11.23;;;4.77;;
21356;SDS011;10836;53.068;18.234;2022-11-11T07:41:52;12.93;;;4.77;;
21356;SDS011;10836;53.068;18.234;2022-11-11T07:44:38;13.30;;;4.53;;
21356;SDS011;10836;53.068;18.234;2022-11-11T07:47:23;16.57;;;5.37;;
21356;SDS011;10836;53.068;18.234;2022-11-11T07:50:09;18.67;;;4.60;;
21356;SDS011;10836;53.068;18.234;2022-11-11T07:52:56;7.73;;;3.80;;
21356;SDS011;10836;53.068;18.234;2022-11-11T07:55:43;18.43;;;4.50;;
21356;SDS011;10836;53.068;18.234;2022-11-11T07:58:30;16.23;;;4.70;;
21356;SDS011;10836;53.068;18.234;2022-11-11T08:01:15;14.57;;;3.93;;
21356;SDS011;10836;53.068;18.234;2022-11-11T08:04:02;20.40;;;7.93;;
21356;SDS011;10836;53.068;18.234;2022-11-11T08:06:47;12.33;;;4.90;;
21356;SDS011;10836;53.068;18.234;2022-11-11T08:09:33;19.27;;;8.87;;
21356;SDS011;10836;53.068;18.234;2022-11-11T08:12:18;16.63;;;5.03;;
21356;SDS011;10836;53.068;18.234;2022-11-11T08:15:22;13.50;;;4.90;;
21356;SDS011;10836;53.068;18.234;2022-11-11T08:18:08;22.10;;;5.27;;
21356;SDS011;10836;53.068;18.234;2022-11-11T08:20:54;14.67;;;5.10;;
21356;SDS011;10836;53.068;18.234;2022-11-11T08:23:39;15.60;;;4.90;;
21356;SDS011;10836;53.068;18.234;2022-11-11T08:26:45;14.00;;;5.30;;
21356;SDS011;10836;53.068;18.234;2022-11-11T08:29:31;13.00;;;6.10;;
21356;SDS011;10836;53.068;18.234;2022-11-11T08:32:17;21.60;;;6.73;;
21356;SDS011;10836;53.068;18.234;2022-11-11T08:35:02;12.67;;;4.37;;
21356;SDS011;10836;53.068;18.234;2022-11-11T08:37:48;16.03;;;6.47;;
21356;SDS011;10836;53.068;18.234;2022-11-11T08:40:34;14.10;;;5.23;;
21356;SDS011;10836;53.068;18.234;2022-11-11T08:43:19;12.43;;;4.30;;
21356;SDS011;10836;53.068;18.234;2022-11-11T08:46:06;17.60;;;5.30;;
21356;SDS011;10836;53.068;18.234;2022-11-11T08:48:52;14.53;;;5.00;;
21356;SDS011;10836;53.068;18.234;2022-11-11T08:51:38;21.20;;;7.43;;
21356;SDS011;10836;53.068;18.234;2022-11-11T08:54:29;21.23;;;9.33;;
21356;SDS011;10836;53.068;18.234;2022-11-11T08:57:15;19.23;;;8.50;;
21356;SDS011;10836;53.068;18.234;2022-11-11T09:00:00;20.30;;;9.30;;
21356;SDS011;10836;53.068;18.234;2022-11-11T09:02:47;18.83;;;7.17;;
21356;SDS011;10836;53.068;18.234;2022-11-11T09:05:33;19.07;;;7.67;;
21356;SDS011;10836;53.068;18.234;2022-11-11T09:08:19;23.70;;;10.60;;
21356;SDS011;10836;53.068;18.234;2022-11-11T09:11:04;45.27;;;19.63;;
21356;SDS011;10836;53.068;18.234;2022-11-11T09:13:50;19.60;;;7.80;;
21356;SDS011;10836;53.068;18.234;2022-11-11T09:16:36;20.73;;;7.73;;
21356;SDS011;10836;53.068;18.234;2022-11-11T09:19:21;23.93;;;7.87;;
21356;SDS011;10836;53.068;18.234;2022-11-11T09:22:07;16.50;;;5.33;;
21356;SDS011;10836;53.068;18.234;2022-11-11T09:24:52;21.87;;;6.60;;
21356;SDS011;10836;53.068;18.234;2022-11-11T09:27:38;15.57;;;5.90;;
21356;SDS011;10836;53.068;18.234;2022-11-11T09:30:25;17.80;;;6.63;;
21356;SDS011;10836;53.068;18.234;2022-11-11T09:33:12;17.50;;;7.27;;
21356;SDS011;10836;53.068;18.234;2022-11-11T09:36:00;12.67;;;6.87;;
21356;SDS011;10836;53.068;18.234;2022-11-11T09:38:46;16.60;;;5.73;;
21356;SDS011;10836;53.068;18.234;2022-11-11T09:45:05;15.53;;;4.83;;
21356;SDS011;10836;53.068;18.234;2022-11-11T09:50:14;15.90;;;5.40;;
21356;SDS011;10836;53.068;18.234;2022-11-11T09:55:52;15.93;;;4.80;;
21356;SDS011;10836;53.068;18.234;2022-11-11T10:01:38;13.93;;;5.57;;
21356;SDS011;10836;53.068;18.234;2022-11-11T10:11:11;16.43;;;6.20;;
21356;SDS011;10836;53.068;18.234;2022-11-11T10:14:03;15.70;;;6.13;;
21356;SDS011;10836;53.068;18.234;2022-11-11T10:22:59;14.67;;;5.40;;
21356;SDS011;10836;53.068;18.234;2022-11-11T10:25:54;15.70;;;4.50;;
21356;SDS011;10836;53.068;18.234;2022-11-11T10:28:41;12.73;;;5.50;;
21356;SDS011;10836;53.068;18.234;2022-11-11T10:31:28;21.87;;;6.40;;
21356;SDS011;10836;53.068;18.234;2022-11-11T10:34:15;17.00;;;5.00;;
21356;SDS011;10836;53.068;18.234;2022-11-11T10:37:09;14.27;;;4.80;;
21356;SDS011;10836;53.068;18.234;2022-11-11T10:43:16;26.03;;;9.40;;
21356;SDS011;10836;53.068;18.234;2022-11-11T10:46:15;19.70;;;6.20;;
21356;SDS011;10836;53.068;18.234;2022-11-11T10:49:13;11.60;;;4.13;;
21356;SDS011;10836;53.068;18.234;2022-11-11T10:52:05;14.87;;;6.30;;
21356;SDS011;10836;53.068;18.234;2022-11-11T10:55:01;13.60;;;5.87;;
21356;SDS011;10836;53.068;18.234;2022-11-11T10:58:05;10.63;;;5.10;;
21356;SDS011;10836;53.068;18.234;2022-11-11T11:00:56;12.43;;;4.53;;
21356;SDS011;10836;53.068;18.234;2022-11-11T11:03:46;9.93;;;5.10;;
21356;SDS011;10836;53.068;18.234;2022-11-11T11:06:39;15.80;;;5.23;;
21356;SDS011;10836;53.068;18.234;2022-11-11T11:09:29;15.00;;;6.40;;
21356;SDS011;10836;53.068;18.234;2022-11-11T11:12:29;11.37;;;4.70;;
21356;SDS011;10836;53.068;18.234;2022-11-11T11:15:23;9.97;;;4.63;;
21356;SDS011;10836;53.068;18.234;2022-11-11T11:18:12;14.47;;;5.10;;
21356;SDS011;10836;53.068;18.234;2022-11-11T11:21:01;13.87;;;5.67;;
21356;SDS011;10836;53.068;18.234;2022-11-11T11:23:49;17.07;;;5.60;;
21356;SDS011;10836;53.068;18.234;2022-11-11T11:26:44;11.03;;;5.50;;
21356;SDS011;10836;53.068;18.234;2022-11-11T11:32:18;13.77;;;6.13;;
21356;SDS011;10836;53.068;18.234;2022-11-11T11:35:06;18.77;;;7.20;;
21356;SDS011;10836;53.068;18.234;2022-11-11T11:37:51;18.07;;;6.20;;
21356;SDS011;10836;53.068;18.234;2022-11-11T11:40:51;23.50;;;10.53;;
21356;SDS011;10836;53.068;18.234;2022-11-11T11:43:40;17.37;;;7.67;;
21356;SDS011;10836;53.068;18.234;2022-11-11T11:46:35;13.70;;;6.53;;
21356;SDS011;10836;53.068;18.234;2022-11-11T12:01:34;10.40;;;5.30;;
21356;SDS011;10836;53.068;18.234;2022-11-11T12:04:27;18.70;;;6.07;;
21356;SDS011;10836;53.068;18.234;2022-11-11T12:13:34;14.37;;;5.33;;
21356;SDS011;10836;53.068;18.234;2022-11-11T12:16:37;15.70;;;5.93;;
21356;SDS011;10836;53.068;18.234;2022-11-11T12:25:36;16.80;;;6.07;;
21356;SDS011;10836;53.068;18.234;2022-11-11T12:32:30;14.77;;;5.23;;
21356;SDS011;10836;53.068;18.234;2022-11-11T12:38:39;14.60;;;5.53;;
21356;SDS011;10836;53.068;18.234;2022-11-11T12:44:15;16.07;;;5.90;;
21356;SDS011;10836;53.068;18.234;2022-11-11T12:47:07;19.47;;;5.93;;
21356;SDS011;10836;53.068;18.234;2022-11-11T12:50:00;15.73;;;5.20;;
21356;SDS011;10836;53.068;18.234;2022-11-11T12:56:09;18.87;;;4.67;;
21356;SDS011;10836;53.068;18.234;2022-11-11T13:02:29;13.87;;;5.00;;
21356;SDS011;10836;53.068;18.234;2022-11-11T13:15:03;14.77;;;4.80;;
21356;SDS011;10836;53.068;18.234;2022-11-11T13:17:58;14.23;;;5.80;;
21356;SDS011;10836;53.068;18.234;2022-11-11T13:20:46;21.30;;;6.90;;
21356;SDS011;10836;53.068;18.234;2022-11-11T13:23:39;15.63;;;6.50;;
21356;SDS011;10836;53.068;18.234;2022-11-11T13:26:36;14.67;;;5.50;;
21356;SDS011;10836;53.068;18.234;2022-11-11T13:32:17;13.73;;;6.13;;
21356;SDS011;10836;53.068;18.234;2022-11-11T13:35:15;17.73;;;6.50;;
21356;SDS011;10836;53.068;18.234;2022-11-11T13:38:05;13.30;;;6.00;;
21356;SDS011;10836;53.068;18.234;2022-11-11T13:40:57;10.77;;;5.70;;
21356;SDS011;10836;53.068;18.234;2022-11-11T13:43:46;12.80;;;6.23;;
21356;SDS011;10836;53.068;18.234;2022-11-11T13:49:32;16.27;;;6.30;;
21356;SDS011;10836;53.068;18.234;2022-11-11T13:52:26;17.50;;;6.07;;
21356;SDS011;10836;53.068;18.234;2022-11-11T13:55:25;17.03;;;6.00;;
21356;SDS011;10836;53.068;18.234;2022-11-11T13:58:23;18.87;;;7.90;;
21356;SDS011;10836;53.068;18.234;2022-11-11T14:01:12;17.77;;;8.33;;
21356;SDS011;10836;53.068;18.234;2022-11-11T14:04:01;19.13;;;8.53;;
21356;SDS011;10836;53.068;18.234;2022-11-11T14:06:52;17.47;;;7.10;;
21356;SDS011;10836;53.068;18.234;2022-11-11T14:10:00;18.77;;;10.77;;
21356;SDS011;10836;53.068;18.234;2022-11-11T14:18:34;15.00;;;6.63;;
21356;SDS011;10836;53.068;18.234;2022-11-11T14:24:37;16.97;;;6.40;;
21356;SDS011;10836;53.068;18.234;2022-11-11T14:27:28;14.37;;;6.00;;
21356;SDS011;10836;53.068;18.234;2022-11-11T14:39:46;14.77;;;5.97;;
21356;SDS011;10836;53.068;18.234;2022-11-11T14:51:35;18.83;;;5.93;;
21356;SDS011;10836;53.068;18.234;2022-11-11T14:54:22;17.20;;;6.27;;
21356;SDS011;10836;53.068;18.234;2022-11-11T15:03:47;15.17;;;7.53;;
21356;SDS011;10836;53.068;18.234;2022-11-11T15:06:42;21.60;;;11.20;;
21356;SDS011;10836;53.068;18.234;2022-11-11T15:21:42;26.03;;;12.83;;
21356;SDS011;10836;53.068;18.234;2022-11-11T15:24:36;20.87;;;10.47;;
21356;SDS011;10836;53.068;18.234;2022-11-11T15:30:18;31.67;;;15.60;;
21356;SDS011;10836;53.068;18.234;2022-11-11T15:33:27;15.13;;;6.77;;
21356;SDS011;10836;53.068;18.234;2022-11-11T15:39:45;15.27;;;6.63;;
21356;SDS011;10836;53.068;18.234;2022-11-11T15:42:34;16.87;;;5.93;;
21356;SDS011;10836;53.068;18.234;2022-11-11T15:45:24;16.13;;;5.93;;
21356;SDS011;10836;53.068;18.234;2022-11-11T15:48:21;18.13;;;6.57;;
21356;SDS011;10836;53.068;18.234;2022-11-11T15:51:25;15.67;;;6.73;;
21356;SDS011;10836;53.068;18.234;2022-11-11T15:54:18;14.90;;;7.53;;
21356;SDS011;10836;53.068;18.234;2022-11-11T15:57:14;16.13;;;7.47;;
21356;SDS011;10836;53.068;18.234;2022-11-11T16:00:18;12.13;;;5.80;;
21356;SDS011;10836;53.068;18.234;2022-11-11T16:03:17;17.83;;;6.10;;
21356;SDS011;10836;53.068;18.234;2022-11-11T16:06:08;15.57;;;5.93;;
21356;SDS011;10836;53.068;18.234;2022-11-11T16:08:55;14.53;;;6.20;;
21356;SDS011;10836;53.068;18.234;2022-11-11T16:11:41;16.00;;;6.57;;
21356;SDS011;10836;53.068;18.234;2022-11-11T16:14:29;16.03;;;6.27;;
21356;SDS011;10836;53.068;18.234;2022-11-11T16:17:21;15.67;;;6.37;;
21356;SDS011;10836;53.068;18.234;2022-11-11T16:20:13;15.10;;;6.93;;
21356;SDS011;10836;53.068;18.234;2022-11-11T16:23:01;15.43;;;7.03;;
21356;SDS011;10836;53.068;18.234;2022-11-11T16:25:51;15.50;;;6.70;;
21356;SDS011;10836;53.068;18.234;2022-11-11T16:37:14;15.00;;;6.80;;
21356;SDS011;10836;53.068;18.234;2022-11-11T16:46:00;17.97;;;8.03;;
21356;SDS011;10836;53.068;18.234;2022-11-11T16:48:48;16.73;;;7.40;;
21356;SDS011;10836;53.068;18.234;2022-11-11T16:51:40;16.60;;;7.70;;
21356;SDS011;10836;53.068;18.234;2022-11-11T16:54:29;16.53;;;7.67;;
21356;SDS011;10836;53.068;18.234;2022-11-11T16:57:23;17.43;;;7.93;;
21356;SDS011;10836;53.068;18.234;2022-11-11T17:00:13;15.60;;;7.83;;
21356;SDS011;10836;53.068;18.234;2022-11-11T17:03:06;19.57;;;8.13;;
21356;SDS011;10836;53.068;18.234;2022-11-11T17:08:44;18.40;;;8.37;;
21356;SDS011;10836;53.068;18.234;2022-11-11T17:14:26;46.70;;;17.23;;
21356;SDS011;10836;53.068;18.234;2022-11-11T17:17:13;30.57;;;12.13;;
21356;SDS011;10836;53.068;18.234;2022-11-11T17:19:59;21.50;;;9.57;;
21356;SDS011;10836;53.068;18.234;2022-11-11T17:22:48;26.83;;;11.00;;
21356;SDS011;10836;53.068;18.234;2022-11-11T17:25:35;52.10;;;26.13;;
21356;SDS011;10836;53.068;18.234;2022-11-11T17:28:21;26.27;;;12.10;;
21356;SDS011;10836;53.068;18.234;2022-11-11T17:31:07;23.60;;;9.50;;
21356;SDS011;10836;53.068;18.234;2022-11-11T17:33:55;24.87;;;11.47;;
21356;SDS011;10836;53.068;18.234;2022-11-11T17:36:40;25.80;;;12.93;;
21356;SDS011;10836;53.068;18.234;2022-11-11T17:39:26;28.80;;;11.40;;
21356;SDS011;10836;53.068;18.234;2022-11-11T17:42:11;26.37;;;13.37;;
21356;SDS011;10836;53.068;18.234;2022-11-11T17:44:58;35.73;;;15.30;;
21356;SDS011;10836;53.068;18.234;2022-11-11T17:47:44;20.40;;;9.60;;
21356;SDS011;10836;53.068;18.234;2022-11-11T17:50:29;24.43;;;10.93;;
21356;SDS011;10836;53.068;18.234;2022-11-11T17:53:15;33.73;;;16.17;;
21356;SDS011;10836;53.068;18.234;2022-11-11T17:56:02;34.00;;;14.43;;
21356;SDS011;10836;53.068;18.234;2022-11-11T17:58:48;28.30;;;11.17;;
21356;SDS011;10836;53.068;18.234;2022-11-11T18:01:34;20.97;;;9.60;;
21356;SDS011;10836;53.068;18.234;2022-11-11T18:04:19;20.90;;;9.03;;
21356;SDS011;10836;53.068;18.234;2022-11-11T18:07:05;25.27;;;11.73;;
21356;SDS011;10836;53.068;18.234;2022-11-11T18:09:50;29.13;;;12.73;;
21356;SDS011;10836;53.068;18.234;2022-11-11T18:12:37;43.03;;;16.33;;
21356;SDS011;10836;53.068;18.234;2022-11-11T18:15:22;24.90;;;12.10;;
21356;SDS011;10836;53.068;18.234;2022-11-11T18:18:08;19.03;;;10.47;;
21356;SDS011;10836;53.068;18.234;2022-11-11T18:20:58;23.97;;;12.17;;
21356;SDS011;10836;53.068;18.234;2022-11-11T18:23:45;23.27;;;10.43;;
21356;SDS011;10836;53.068;18.234;2022-11-11T18:26:36;21.03;;;9.70;;
21356;SDS011;10836;53.068;18.234;2022-11-11T18:29:23;19.93;;;9.10;;
21356;SDS011;10836;53.068;18.234;2022-11-11T18:32:08;18.73;;;9.30;;
21356;SDS011;10836;53.068;18.234;2022-11-11T18:34:54;21.53;;;8.90;;
21356;SDS011;10836;53.068;18.234;2022-11-11T18:37:40;23.57;;;8.67;;
21356;SDS011;10836;53.068;18.234;2022-11-11T18:40:31;22.00;;;10.93;;
21356;SDS011;10836;53.068;18.234;2022-11-11T18:43:16;18.63;;;8.67;;
21356;SDS011;10836;53.068;18.234;2022-11-11T18:46:03;16.57;;;8.53;;
21356;SDS011;10836;53.068;18.234;2022-11-11T18:48:54;19.43;;;9.53;;
21356;SDS011;10836;53.068;18.234;2022-11-11T18:51:41;18.17;;;8.83;;
21356;SDS011;10836;53.068;18.234;2022-11-11T18:54:28;14.50;;;8.33;;
21356;SDS011;10836;53.068;18.234;2022-11-11T18:57:15;21.57;;;9.63;;
21356;SDS011;10836;53.068;18.234;2022-11-11T19:00:00;21.30;;;11.00;;
21356;SDS011;10836;53.068;18.234;2022-11-11T19:02:46;25.23;;;12.27;;
21356;SDS011;10836;53.068;18.234;2022-11-11T19:05:31;22.63;;;11.53;;
21356;SDS011;10836;53.068;18.234;2022-11-11T19:08:17;24.47;;;12.30;;
21356;SDS011;10836;53.068;18.234;2022-11-11T19:11:04;27.00;;;11.43;;
21356;SDS011;10836;53.068;18.234;2022-11-11T19:13:51;24.93;;;12.03;;
21356;SDS011;10836;53.068;18.234;2022-11-11T19:16:37;24.07;;;10.53;;
21356;SDS011;10836;53.068;18.234;2022-11-11T19:19:23;24.93;;;10.87;;